sensor_id;sensor_type;location;lat;lon;timestamp;temperature;humidity
71514;DHT22;59335;46.652;21.272;2022-08-06T00:00:41;29.62;37.00
71514;DHT22;59335;46.652;21.272;2022-08-06T00:03:46;29.63;36.99
71514;DHT22;59335;46.652;21.272;2022-08-06T00:06:49;29.62;36.98
71514;DHT22;59335;46.652;21.272;2022-08-06T00:09:53;29.60;36.97
71514;DHT22;59335;46.652;21.272;2022-08-06T00:13:03;29.63;36.97
71514;DHT22;59335;46.652;21.272;2022-08-06T00:16:08;29.60;36.97
71514;DHT22;59335;46.652;21.272;2022-08-06T00:19:30;29.60;36.97
71514;DHT22;59335;46.652;21.272;2022-08-06T00:22:53;29.60;36.93
71514;DHT22;59335;46.652;21.272;2022-08-06T00:25:55;29.60;36.96
71514;DHT22;59335;46.652;21.272;2022-08-06T00:28:58;29.60;36.93
71514;DHT22;59335;46.652;21.272;2022-08-06T00:32:01;29.59;36.98
71514;DHT22;59335;46.652;21.272;2022-08-06T00:35:04;29.60;36.97
71514;DHT22;59335;46.652;21.272;2022-08-06T00:38:08;29.60;36.93
71514;DHT22;59335;46.652;21.272;2022-08-06T00:41:12;29.60;36.93
71514;DHT22;59335;46.652;21.272;2022-08-06T00:44:18;29.60;36.94
71514;DHT22;59335;46.652;21.272;2022-08-06T00:47:32;29.59;36.91
71514;DHT22;59335;46.652;21.272;2022-08-06T00:50:55;29.58;36.94
71514;DHT22;59335;46.652;21.272;2022-08-06T00:53:58;29.58;36.94
71514;DHT22;59335;46.652;21.272;2022-08-06T00:57:04;29.58;36.91
71514;DHT22;59335;46.652;21.272;2022-08-06T01:00:12;29.58;36.91
71514;DHT22;59335;46.652;21.272;2022-08-06T01:03:32;29.55;36.88
71514;DHT22;59335;46.652;21.272;2022-08-06T01:06:43;29.56;36.92
71514;DHT22;59335;46.652;21.272;2022-08-06T01:09:59;29.58;36.94
71514;DHT22;59335;46.652;21.272;2022-08-06T01:13:02;29.56;36.85
71514;DHT22;59335;46.652;21.272;2022-08-06T01:16:51;29.55;36.89
71514;DHT22;59335;46.652;21.272;2022-08-06T01:30:42;29.56;36.84
71514;DHT22;59335;46.652;21.272;2022-08-06T01:33:54;29.52;36.86
71514;DHT22;59335;46.652;21.272;2022-08-06T01:37:14;29.53;36.78
71514;DHT22;59335;46.652;21.272;2022-08-06T01:40:23;29.56;36.82
71514;DHT22;59335;46.652;21.272;2022-08-06T01:43:28;29.51;36.81
71514;DHT22;59335;46.652;21.272;2022-08-06T01:46:57;29.52;36.82
71514;DHT22;59335;46.652;21.272;2022-08-06T01:50:03;29.53;36.81
71514;DHT22;59335;46.652;21.272;2022-08-06T01:53:08;29.51;36.75
71514;DHT22;59335;46.652;21.272;2022-08-06T01:56:32;29.51;36.78
71514;DHT22;59335;46.652;21.272;2022-08-06T01:59:56;29.52;36.78
71514;DHT22;59335;46.652;21.272;2022-08-06T02:03:01;29.51;36.79
71514;DHT22;59335;46.652;21.272;2022-08-06T02:06:06;29.48;36.78
71514;DHT22;59335;46.652;21.272;2022-08-06T02:09:14;29.49;36.79
71514;DHT22;59335;46.652;21.272;2022-08-06T02:12:30;29.49;36.76
71514;DHT22;59335;46.652;21.272;2022-08-06T02:15:42;29.51;36.72
71514;DHT22;59335;46.652;21.272;2022-08-06T02:19:02;29.49;36.75
71514;DHT22;59335;46.652;21.272;2022-08-06T02:22:15;29.49;36.80
71514;DHT22;59335;46.652;21.272;2022-08-06T02:25:30;29.49;36.70
71514;DHT22;59335;46.652;21.272;2022-08-06T02:28:38;29.51;36.72
71514;DHT22;59335;46.652;21.272;2022-08-06T02:31:43;29.49;36.71
71514;DHT22;59335;46.652;21.272;2022-08-06T02:34:53;29.48;36.69
71514;DHT22;59335;46.652;21.272;2022-08-06T02:38:05;29.48;36.70
71514;DHT22;59335;46.652;21.272;2022-08-06T02:41:29;29.48;36.70
71514;DHT22;59335;46.652;21.272;2022-08-06T02:48:25;29.46;36.71
71514;DHT22;59335;46.652;21.272;2022-08-06T02:51:38;29.48;36.69
71514;DHT22;59335;46.652;21.272;2022-08-06T02:55:11;29.48;36.71
71514;DHT22;59335;46.652;21.272;2022-08-06T02:58:19;29.46;36.70
71514;DHT22;59335;46.652;21.272;2022-08-06T03:01:45;29.49;36.73
71514;DHT22;59335;46.652;21.272;2022-08-06T03:04:53;29.48;36.70
71514;DHT22;59335;46.652;21.272;2022-08-06T03:07:59;29.43;36.70
71514;DHT22;59335;46.652;21.272;2022-08-06T03:11:04;29.46;36.70
71514;DHT22;59335;46.652;21.272;2022-08-06T03:14:08;29.46;36.70
71514;DHT22;59335;46.652;21.272;2022-08-06T03:17:33;29.45;36.68
71514;DHT22;59335;46.652;21.272;2022-08-06T03:20:36;29.45;36.70
71514;DHT22;59335;46.652;21.272;2022-08-06T03:23:40;29.46;36.64
71514;DHT22;59335;46.652;21.272;2022-08-06T03:26:44;29.45;36.68
71514;DHT22;59335;46.652;21.272;2022-08-06T03:29:50;29.42;36.74
71514;DHT22;59335;46.652;21.272;2022-08-06T03:33:08;29.42;36.71
71514;DHT22;59335;46.652;21.272;2022-08-06T03:36:32;29.45;36.74
71514;DHT22;59335;46.652;21.272;2022-08-06T03:39:38;29.43;36.70
71514;DHT22;59335;46.652;21.272;2022-08-06T03:42:42;29.42;36.71
71514;DHT22;59335;46.652;21.272;2022-08-06T03:45:52;29.43;36.68
71514;DHT22;59335;46.652;21.272;2022-08-06T03:48:59;29.42;36.67
71514;DHT22;59335;46.652;21.272;2022-08-06T03:52:06;29.43;36.70
71514;DHT22;59335;46.652;21.272;2022-08-06T03:55:20;29.43;36.67
71514;DHT22;59335;46.652;21.272;2022-08-06T03:58:25;29.41;36.71
71514;DHT22;59335;46.652;21.272;2022-08-06T04:01:32;29.42;36.70
71514;DHT22;59335;46.652;21.272;2022-08-06T04:04:45;29.41;36.71
71514;DHT22;59335;46.652;21.272;2022-08-06T04:07:52;29.43;36.73
71514;DHT22;59335;46.652;21.272;2022-08-06T04:10:58;29.41;36.73
71514;DHT22;59335;46.652;21.272;2022-08-06T04:14:02;29.43;36.63
71514;DHT22;59335;46.652;21.272;2022-08-06T04:17:10;29.43;36.70
71514;DHT22;59335;46.652;21.272;2022-08-06T04:20:16;29.46;36.65
71514;DHT22;59335;46.652;21.272;2022-08-06T04:23:41;29.43;36.68
71514;DHT22;59335;46.652;21.272;2022-08-06T04:26:49;29.42;36.71
71514;DHT22;59335;46.652;21.272;2022-08-06T04:29:54;29.45;36.71
71514;DHT22;59335;46.652;21.272;2022-08-06T04:33:05;29.45;36.75
71514;DHT22;59335;46.652;21.272;2022-08-06T04:36:13;29.43;36.75
71514;DHT22;59335;46.652;21.272;2022-08-06T04:39:27;29.48;36.68
71514;DHT22;59335;46.652;21.272;2022-08-06T04:42:50;29.43;36.75
71514;DHT22;59335;46.652;21.272;2022-08-06T04:45:53;29.46;36.73
71514;DHT22;59335;46.652;21.272;2022-08-06T04:49:17;29.46;36.73
71514;DHT22;59335;46.652;21.272;2022-08-06T04:52:24;29.46;36.74
71514;DHT22;59335;46.652;21.272;2022-08-06T04:55:47;29.46;36.84
71514;DHT22;59335;46.652;21.272;2022-08-06T04:59:05;29.49;36.84
71514;DHT22;59335;46.652;21.272;2022-08-06T05:02:09;29.43;36.80
71514;DHT22;59335;46.652;21.272;2022-08-06T05:05:14;29.51;36.83
71514;DHT22;59335;46.652;21.272;2022-08-06T05:08:23;29.49;36.88
71514;DHT22;59335;46.652;21.272;2022-08-06T05:11:31;29.51;36.89
71514;DHT22;59335;46.652;21.272;2022-08-06T05:18:12;29.55;36.85
71514;DHT22;59335;46.652;21.272;2022-08-06T05:21:37;29.58;36.85
71514;DHT22;59335;46.652;21.272;2022-08-06T05:25:00;29.55;36.98
71514;DHT22;59335;46.652;21.272;2022-08-06T05:28:19;29.56;36.92
71514;DHT22;59335;46.652;21.272;2022-08-06T05:31:36;29.59;36.94
71514;DHT22;59335;46.652;21.272;2022-08-06T05:34:42;29.60;36.90
71514;DHT22;59335;46.652;21.272;2022-08-06T05:37:54;29.63;36.92
71514;DHT22;59335;46.652;21.272;2022-08-06T05:41:07;29.65;36.84
71514;DHT22;59335;46.652;21.272;2022-08-06T05:44:10;29.67;36.89
71514;DHT22;59335;46.652;21.272;2022-08-06T05:47:15;29.67;36.85
71514;DHT22;59335;46.652;21.272;2022-08-06T05:50:29;29.72;36.88
71514;DHT22;59335;46.652;21.272;2022-08-06T05:53:40;29.73;36.95
71514;DHT22;59335;46.652;21.272;2022-08-06T05:57:19;29.77;36.90
71514;DHT22;59335;46.652;21.272;2022-08-06T06:00:43;29.77;36.92
71514;DHT22;59335;46.652;21.272;2022-08-06T06:03:47;29.81;36.90
71514;DHT22;59335;46.652;21.272;2022-08-06T06:06:51;29.81;36.94
71514;DHT22;59335;46.652;21.272;2022-08-06T06:09:57;29.84;36.95
71514;DHT22;59335;46.652;21.272;2022-08-06T06:13:06;29.87;36.97
71514;DHT22;59335;46.652;21.272;2022-08-06T06:16:36;29.89;36.97
71514;DHT22;59335;46.652;21.272;2022-08-06T06:19:54;29.93;36.95
71514;DHT22;59335;46.652;21.272;2022-08-06T06:23:08;29.91;36.95
71514;DHT22;59335;46.652;21.272;2022-08-06T06:26:54;29.93;36.99
71514;DHT22;59335;46.652;21.272;2022-08-06T06:30:02;29.97;36.98
71514;DHT22;59335;46.652;21.272;2022-08-06T06:33:24;29.99;36.92
71514;DHT22;59335;46.652;21.272;2022-08-06T06:43:47;30.07;36.99
71514;DHT22;59335;46.652;21.272;2022-08-06T06:47:17;30.07;37.03
71514;DHT22;59335;46.652;21.272;2022-08-06T06:50:32;30.11;37.02
71514;DHT22;59335;46.652;21.272;2022-08-06T06:53:41;30.14;37.01
71514;DHT22;59335;46.652;21.272;2022-08-06T06:57:09;30.20;37.04
71514;DHT22;59335;46.652;21.272;2022-08-06T07:00:14;30.20;36.97
71514;DHT22;59335;46.652;21.272;2022-08-06T07:03:38;30.20;36.99
71514;DHT22;59335;46.652;21.272;2022-08-06T07:06:45;30.24;36.96
71514;DHT22;59335;46.652;21.272;2022-08-06T07:10:00;30.28;36.94
71514;DHT22;59335;46.652;21.272;2022-08-06T07:13:05;30.28;36.94
71514;DHT22;59335;46.652;21.272;2022-08-06T07:16:19;30.31;36.88
71514;DHT22;59335;46.652;21.272;2022-08-06T07:19:38;30.32;36.86
71514;DHT22;59335;46.652;21.272;2022-08-06T07:22:47;30.34;36.83
71514;DHT22;59335;46.652;21.272;2022-08-06T07:26:12;30.37;36.89
71514;DHT22;59335;46.652;21.272;2022-08-06T07:29:17;30.41;36.81
71514;DHT22;59335;46.652;21.272;2022-08-06T07:32:42;30.42;36.85
71514;DHT22;59335;46.652;21.272;2022-08-06T07:35:51;30.42;36.85
71514;DHT22;59335;46.652;21.272;2022-08-06T07:39:00;30.41;36.83
71514;DHT22;59335;46.652;21.272;2022-08-06T07:42:08;30.45;36.75
71514;DHT22;59335;46.652;21.272;2022-08-06T07:45:13;30.47;36.81
71514;DHT22;59335;46.652;21.272;2022-08-06T07:48:21;30.48;36.79
71514;DHT22;59335;46.652;21.272;2022-08-06T07:51:34;30.48;36.74
71514;DHT22;59335;46.652;21.272;2022-08-06T07:54:46;30.48;36.79
71514;DHT22;59335;46.652;21.272;2022-08-06T07:57:51;30.51;36.77
71514;DHT22;59335;46.652;21.272;2022-08-06T08:01:00;30.54;36.80
71514;DHT22;59335;46.652;21.272;2022-08-06T08:04:06;30.51;36.81
71514;DHT22;59335;46.652;21.272;2022-08-06T08:07:37;30.55;36.79
71514;DHT22;59335;46.652;21.272;2022-08-06T08:11:00;30.55;36.80
71514;DHT22;59335;46.652;21.272;2022-08-06T08:14:04;30.56;36.78
71514;DHT22;59335;46.652;21.272;2022-08-06T08:17:08;30.59;36.80
71514;DHT22;59335;46.652;21.272;2022-08-06T08:20:12;30.58;36.82
71514;DHT22;59335;46.652;21.272;2022-08-06T08:23:21;30.58;36.81
71514;DHT22;59335;46.652;21.272;2022-08-06T08:26:37;30.59;36.82
71514;DHT22;59335;46.652;21.272;2022-08-06T08:30:00;30.56;36.77
71514;DHT22;59335;46.652;21.272;2022-08-06T08:33:05;30.61;36.79
71514;DHT22;59335;46.652;21.272;2022-08-06T08:36:19;30.61;36.79
71514;DHT22;59335;46.652;21.272;2022-08-06T08:39:32;30.59;36.74
71514;DHT22;59335;46.652;21.272;2022-08-06T08:42:43;30.65;36.84
71514;DHT22;59335;46.652;21.272;2022-08-06T08:45:49;30.62;36.79
71514;DHT22;59335;46.652;21.272;2022-08-06T08:48:58;30.62;36.81
71514;DHT22;59335;46.652;21.272;2022-08-06T08:52:02;30.65;36.87
71514;DHT22;59335;46.652;21.272;2022-08-06T08:55:15;30.66;36.83
71514;DHT22;59335;46.652;21.272;2022-08-06T08:58:39;30.64;36.86
71514;DHT22;59335;46.652;21.272;2022-08-06T09:02:04;30.66;36.84
71514;DHT22;59335;46.652;21.272;2022-08-06T09:05:09;30.66;36.86
71514;DHT22;59335;46.652;21.272;2022-08-06T09:08:16;30.66;36.84
71514;DHT22;59335;46.652;21.272;2022-08-06T09:11:38;30.66;36.82
71514;DHT22;59335;46.652;21.272;2022-08-06T09:15:03;30.68;36.86
71514;DHT22;59335;46.652;21.272;2022-08-06T09:18:07;30.65;36.86
71514;DHT22;59335;46.652;21.272;2022-08-06T09:21:29;30.66;36.87
71514;DHT22;59335;46.652;21.272;2022-08-06T09:24:33;30.65;36.90
71514;DHT22;59335;46.652;21.272;2022-08-06T09:27:36;30.66;36.84
71514;DHT22;59335;46.652;21.272;2022-08-06T09:31:18;30.64;36.90
71514;DHT22;59335;46.652;21.272;2022-08-06T09:34:36;30.66;36.90
71514;DHT22;59335;46.652;21.272;2022-08-06T09:37:40;30.64;36.93
71514;DHT22;59335;46.652;21.272;2022-08-06T09:44:10;30.64;36.94
71514;DHT22;59335;46.652;21.272;2022-08-06T09:47:36;30.64;36.94
71514;DHT22;59335;46.652;21.272;2022-08-06T09:50:44;30.61;36.95
71514;DHT22;59335;46.652;21.272;2022-08-06T09:53:56;30.61;36.97
71514;DHT22;59335;46.652;21.272;2022-08-06T09:57:19;30.61;37.01
71514;DHT22;59335;46.652;21.272;2022-08-06T10:00:37;30.62;37.01
71514;DHT22;59335;46.652;21.272;2022-08-06T10:03:40;30.64;37.03
71514;DHT22;59335;46.652;21.272;2022-08-06T10:07:03;30.61;37.01
71514;DHT22;59335;46.652;21.272;2022-08-06T10:10:09;30.61;37.04
71514;DHT22;59335;46.652;21.272;2022-08-06T10:13:18;30.62;37.00
71514;DHT22;59335;46.652;21.272;2022-08-06T10:16:24;30.61;37.01
71514;DHT22;59335;46.652;21.272;2022-08-06T10:19:30;30.59;37.03
71514;DHT22;59335;46.652;21.272;2022-08-06T10:22:58;30.58;37.05
71514;DHT22;59335;46.652;21.272;2022-08-06T10:26:07;30.58;37.02
71514;DHT22;59335;46.652;21.272;2022-08-06T10:29:12;30.59;37.08
71514;DHT22;59335;46.652;21.272;2022-08-06T10:32:22;30.56;37.05
71514;DHT22;59335;46.652;21.272;2022-08-06T10:35:34;30.59;37.07
71514;DHT22;59335;46.652;21.272;2022-08-06T10:38:50;30.56;37.07
71514;DHT22;59335;46.652;21.272;2022-08-06T10:41:55;30.59;37.07
71514;DHT22;59335;46.652;21.272;2022-08-06T10:45:05;30.56;37.07
71514;DHT22;59335;46.652;21.272;2022-08-06T10:48:16;30.56;37.05
71514;DHT22;59335;46.652;21.272;2022-08-06T10:51:41;30.59;37.02
71514;DHT22;59335;46.652;21.272;2022-08-06T10:54:59;30.59;37.04
71514;DHT22;59335;46.652;21.272;2022-08-06T10:58:02;30.54;37.06
71514;DHT22;59335;46.652;21.272;2022-08-06T11:01:17;30.56;37.05
71514;DHT22;59335;46.652;21.272;2022-08-06T11:04:59;30.55;37.05
71514;DHT22;59335;46.652;21.272;2022-08-06T11:12:26;30.55;37.06
71514;DHT22;59335;46.652;21.272;2022-08-06T11:15:37;30.56;37.09
71514;DHT22;59335;46.652;21.272;2022-08-06T11:19:03;30.52;37.09
71514;DHT22;59335;46.652;21.272;2022-08-06T11:22:32;30.52;37.06
71514;DHT22;59335;46.652;21.272;2022-08-06T11:31:47;30.52;37.15
71514;DHT22;59335;46.652;21.272;2022-08-06T11:34:58;30.54;37.09
71514;DHT22;59335;46.652;21.272;2022-08-06T11:38:12;30.54;37.12
71514;DHT22;59335;46.652;21.272;2022-08-06T11:41:30;30.52;37.09
71514;DHT22;59335;46.652;21.272;2022-08-06T11:45:01;30.55;37.09
71514;DHT22;59335;46.652;21.272;2022-08-06T11:48:24;30.54;37.08
71514;DHT22;59335;46.652;21.272;2022-08-06T11:57:50;30.54;37.17
71514;DHT22;59335;46.652;21.272;2022-08-06T12:00:59;30.54;37.13
71514;DHT22;59335;46.652;21.272;2022-08-06T12:07:45;30.55;37.08
71514;DHT22;59335;46.652;21.272;2022-08-06T12:11:22;30.55;37.12
71514;DHT22;59335;46.652;21.272;2022-08-06T12:14:41;30.56;37.09
71514;DHT22;59335;46.652;21.272;2022-08-06T12:21:18;30.56;37.13
71514;DHT22;59335;46.652;21.272;2022-08-06T12:24:24;30.55;37.11
71514;DHT22;59335;46.652;21.272;2022-08-06T12:27:48;30.55;37.09
71514;DHT22;59335;46.652;21.272;2022-08-06T12:30:56;30.54;37.09
71514;DHT22;59335;46.652;21.272;2022-08-06T12:33:59;30.55;37.16
71514;DHT22;59335;46.652;21.272;2022-08-06T12:37:04;30.58;37.16
71514;DHT22;59335;46.652;21.272;2022-08-06T12:40:15;30.52;37.22
71514;DHT22;59335;46.652;21.272;2022-08-06T12:43:42;30.55;37.20
71514;DHT22;59335;46.652;21.272;2022-08-06T12:47:10;30.54;37.23
71514;DHT22;59335;46.652;21.272;2022-08-06T12:50:21;30.56;37.23
71514;DHT22;59335;46.652;21.272;2022-08-06T12:53:31;30.54;37.22
71514;DHT22;59335;46.652;21.272;2022-08-06T12:56:39;30.54;37.25
71514;DHT22;59335;46.652;21.272;2022-08-06T12:59:43;30.55;37.28
71514;DHT22;59335;46.652;21.272;2022-08-06T13:02:47;30.54;37.25
71514;DHT22;59335;46.652;21.272;2022-08-06T13:05:56;30.56;37.22
71514;DHT22;59335;46.652;21.272;2022-08-06T13:09:03;30.55;37.25
71514;DHT22;59335;46.652;21.272;2022-08-06T13:12:12;30.56;37.29
71514;DHT22;59335;46.652;21.272;2022-08-06T13:15:31;30.55;37.31
71514;DHT22;59335;46.652;21.272;2022-08-06T13:19:06;30.55;37.30
71514;DHT22;59335;46.652;21.272;2022-08-06T13:22:21;30.56;37.33
71514;DHT22;59335;46.652;21.272;2022-08-06T13:25:24;30.56;37.31
71514;DHT22;59335;46.652;21.272;2022-08-06T13:29:07;30.54;37.35
71514;DHT22;59335;46.652;21.272;2022-08-06T13:32:30;30.55;37.33
71514;DHT22;59335;46.652;21.272;2022-08-06T13:35:35;30.55;37.35
71514;DHT22;59335;46.652;21.272;2022-08-06T13:38:38;30.55;37.35
71514;DHT22;59335;46.652;21.272;2022-08-06T13:41:43;30.58;37.34
71514;DHT22;59335;46.652;21.272;2022-08-06T13:45:22;30.55;37.35
71514;DHT22;59335;46.652;21.272;2022-08-06T13:48:46;30.54;37.42
71514;DHT22;59335;46.652;21.272;2022-08-06T13:51:51;30.55;37.35
71514;DHT22;59335;46.652;21.272;2022-08-06T13:54:56;30.56;37.38
71514;DHT22;59335;46.652;21.272;2022-08-06T13:58:00;30.55;37.40
71514;DHT22;59335;46.652;21.272;2022-08-06T14:01:03;30.54;37.40
71514;DHT22;59335;46.652;21.272;2022-08-06T14:04:08;30.55;37.40
71514;DHT22;59335;46.652;21.272;2022-08-06T14:07:12;30.52;37.43
71514;DHT22;59335;46.652;21.272;2022-08-06T14:10:17;30.54;37.45
71514;DHT22;59335;46.652;21.272;2022-08-06T14:13:30;30.52;37.40
71514;DHT22;59335;46.652;21.272;2022-08-06T14:16:34;30.55;37.49
71514;DHT22;59335;46.652;21.272;2022-08-06T14:19:40;30.55;37.40
71514;DHT22;59335;46.652;21.272;2022-08-06T14:23:02;30.54;37.43
71514;DHT22;59335;46.652;21.272;2022-08-06T14:26:06;30.52;37.43
71514;DHT22;59335;46.652;21.272;2022-08-06T14:29:14;30.52;37.46
71514;DHT22;59335;46.652;21.272;2022-08-06T14:32:36;30.52;37.40
71514;DHT22;59335;46.652;21.272;2022-08-06T14:35:41;30.52;37.48
71514;DHT22;59335;46.652;21.272;2022-08-06T14:38:53;30.54;37.43
71514;DHT22;59335;46.652;21.272;2022-08-06T14:41:55;30.52;37.40
71514;DHT22;59335;46.652;21.272;2022-08-06T14:45:16;30.54;37.40
71514;DHT22;59335;46.652;21.272;2022-08-06T14:48:23;30.54;37.43
71514;DHT22;59335;46.652;21.272;2022-08-06T14:51:32;30.52;37.43
71514;DHT22;59335;46.652;21.272;2022-08-06T14:54:55;30.54;37.49
71514;DHT22;59335;46.652;21.272;2022-08-06T14:58:11;30.52;37.48
71514;DHT22;59335;46.652;21.272;2022-08-06T15:01:17;30.52;37.50
71514;DHT22;59335;46.652;21.272;2022-08-06T15:04:23;30.55;37.50
71514;DHT22;59335;46.652;21.272;2022-08-06T15:07:26;30.51;37.49
71514;DHT22;59335;46.652;21.272;2022-08-06T15:10:43;30.52;37.51
71514;DHT22;59335;46.652;21.272;2022-08-06T15:13:46;30.52;37.50
71514;DHT22;59335;46.652;21.272;2022-08-06T15:16:55;30.52;37.53
71514;DHT22;59335;46.652;21.272;2022-08-06T15:20:18;30.52;37.53
71514;DHT22;59335;46.652;21.272;2022-08-06T15:23:26;30.52;37.52
71514;DHT22;59335;46.652;21.272;2022-08-06T15:26:49;30.49;37.52
71514;DHT22;59335;46.652;21.272;2022-08-06T15:29:52;30.52;37.49
71514;DHT22;59335;46.652;21.272;2022-08-06T15:33:00;30.52;37.57
71514;DHT22;59335;46.652;21.272;2022-08-06T15:36:12;30.52;37.53
71514;DHT22;59335;46.652;21.272;2022-08-06T15:39:15;30.52;37.56
71514;DHT22;59335;46.652;21.272;2022-08-06T15:42:23;30.49;37.59
71514;DHT22;59335;46.652;21.272;2022-08-06T15:45:26;30.52;37.60
71514;DHT22;59335;46.652;21.272;2022-08-06T15:48:48;30.49;37.54
71514;DHT22;59335;46.652;21.272;2022-08-06T15:51:57;30.54;37.62
71514;DHT22;59335;46.652;21.272;2022-08-06T15:55:03;30.51;37.69
71514;DHT22;59335;46.652;21.272;2022-08-06T15:58:17;30.49;37.66
71514;DHT22;59335;46.652;21.272;2022-08-06T16:01:29;30.51;37.65
71514;DHT22;59335;46.652;21.272;2022-08-06T16:04:53;30.51;37.73
71514;DHT22;59335;46.652;21.272;2022-08-06T16:07:55;30.54;37.66
71514;DHT22;59335;46.652;21.272;2022-08-06T16:10:58;30.49;37.68
71514;DHT22;59335;46.652;21.272;2022-08-06T16:14:01;30.51;37.75
71514;DHT22;59335;46.652;21.272;2022-08-06T16:17:05;30.52;37.69
71514;DHT22;59335;46.652;21.272;2022-08-06T16:20:12;30.52;37.73
71514;DHT22;59335;46.652;21.272;2022-08-06T16:23:23;30.51;37.77
71514;DHT22;59335;46.652;21.272;2022-08-06T16:26:46;30.51;37.77
71514;DHT22;59335;46.652;21.272;2022-08-06T16:29:59;30.48;37.77
71514;DHT22;59335;46.652;21.272;2022-08-06T16:33:02;30.49;37.80
71514;DHT22;59335;46.652;21.272;2022-08-06T16:36:05;30.51;37.77
71514;DHT22;59335;46.652;21.272;2022-08-06T16:39:14;30.49;37.76
71514;DHT22;59335;46.652;21.272;2022-08-06T16:42:36;30.47;37.78
71514;DHT22;59335;46.652;21.272;2022-08-06T16:45:39;30.49;37.79
71514;DHT22;59335;46.652;21.272;2022-08-06T16:48:46;30.49;37.80
71514;DHT22;59335;46.652;21.272;2022-08-06T16:51:49;30.48;37.83
71514;DHT22;59335;46.652;21.272;2022-08-06T16:55:11;30.47;37.80
71514;DHT22;59335;46.652;21.272;2022-08-06T16:58:16;30.47;37.93
71514;DHT22;59335;46.652;21.272;2022-08-06T17:01:38;30.49;37.88
71514;DHT22;59335;46.652;21.272;2022-08-06T17:05:09;30.45;37.87
71514;DHT22;59335;46.652;21.272;2022-08-06T17:08:22;30.48;37.94
71514;DHT22;59335;46.652;21.272;2022-08-06T17:11:26;30.48;37.94
71514;DHT22;59335;46.652;21.272;2022-08-06T17:14:48;30.45;37.94
71514;DHT22;59335;46.652;21.272;2022-08-06T17:17:54;30.47;37.95
71514;DHT22;59335;46.652;21.272;2022-08-06T17:20:56;30.45;37.98
71514;DHT22;59335;46.652;21.272;2022-08-06T17:24:02;30.45;38.00
71514;DHT22;59335;46.652;21.272;2022-08-06T17:27:06;30.45;38.00
71514;DHT22;59335;46.652;21.272;2022-08-06T17:30:13;30.45;37.92
71514;DHT22;59335;46.652;21.272;2022-08-06T17:33:18;30.45;37.98
71514;DHT22;59335;46.652;21.272;2022-08-06T17:36:24;30.42;38.07
71514;DHT22;59335;46.652;21.272;2022-08-06T17:39:39;30.45;38.05
71514;DHT22;59335;46.652;21.272;2022-08-06T17:42:43;30.41;38.04
71514;DHT22;59335;46.652;21.272;2022-08-06T17:45:50;30.45;38.07
71514;DHT22;59335;46.652;21.272;2022-08-06T17:49:13;30.42;38.05
71514;DHT22;59335;46.652;21.272;2022-08-06T17:52:16;30.42;38.12
71514;DHT22;59335;46.652;21.272;2022-08-06T17:55:33;30.39;38.11
71514;DHT22;59335;46.652;21.272;2022-08-06T17:58:38;30.42;38.10
71514;DHT22;59335;46.652;21.272;2022-08-06T18:01:57;30.42;38.12
71514;DHT22;59335;46.652;21.272;2022-08-06T18:05:03;30.39;38.16
71514;DHT22;59335;46.652;21.272;2022-08-06T18:08:26;30.41;38.18
71514;DHT22;59335;46.652;21.272;2022-08-06T18:11:37;30.39;38.23
71514;DHT22;59335;46.652;21.272;2022-08-06T18:14:42;30.41;38.25
71514;DHT22;59335;46.652;21.272;2022-08-06T18:17:54;30.39;38.26
71514;DHT22;59335;46.652;21.272;2022-08-06T18:21:14;30.38;38.29
71514;DHT22;59335;46.652;21.272;2022-08-06T18:24:26;30.42;38.34
71514;DHT22;59335;46.652;21.272;2022-08-06T18:27:33;30.39;38.33
71514;DHT22;59335;46.652;21.272;2022-08-06T18:30:55;30.39;38.36
71514;DHT22;59335;46.652;21.272;2022-08-06T18:33:59;30.38;38.39
71514;DHT22;59335;46.652;21.272;2022-08-06T18:37:04;30.38;38.42
71514;DHT22;59335;46.652;21.272;2022-08-06T18:40:22;30.38;38.43
71514;DHT22;59335;46.652;21.272;2022-08-06T18:43:46;30.39;38.46
71514;DHT22;59335;46.652;21.272;2022-08-06T18:46:56;30.39;38.46
71514;DHT22;59335;46.652;21.272;2022-08-06T18:50:06;30.37;38.48
71514;DHT22;59335;46.652;21.272;2022-08-06T18:53:10;30.39;38.53
71514;DHT22;59335;46.652;21.272;2022-08-06T18:56:28;30.37;38.59
71514;DHT22;59335;46.652;21.272;2022-08-06T18:59:30;30.39;38.59
71514;DHT22;59335;46.652;21.272;2022-08-06T19:02:33;30.37;38.57
71514;DHT22;59335;46.652;21.272;2022-08-06T19:05:38;30.38;38.66
71514;DHT22;59335;46.652;21.272;2022-08-06T19:08:51;30.35;38.65
71514;DHT22;59335;46.652;21.272;2022-08-06T19:11:54;30.37;38.64
71514;DHT22;59335;46.652;21.272;2022-08-06T19:15:03;30.35;38.72
71514;DHT22;59335;46.652;21.272;2022-08-06T19:18:11;30.34;38.72
71514;DHT22;59335;46.652;21.272;2022-08-06T19:21:19;30.37;38.77
71514;DHT22;59335;46.652;21.272;2022-08-06T19:24:23;30.34;38.76
71514;DHT22;59335;46.652;21.272;2022-08-06T19:27:37;30.34;38.78
71514;DHT22;59335;46.652;21.272;2022-08-06T19:31:00;30.35;38.82
71514;DHT22;59335;46.652;21.272;2022-08-06T19:34:06;30.32;38.83
71514;DHT22;59335;46.652;21.272;2022-08-06T19:37:10;30.34;38.83
71514;DHT22;59335;46.652;21.272;2022-08-06T19:40:33;30.32;38.89
71514;DHT22;59335;46.652;21.272;2022-08-06T19:43:50;30.34;38.90
71514;DHT22;59335;46.652;21.272;2022-08-06T19:47:12;30.31;38.87
71514;DHT22;59335;46.652;21.272;2022-08-06T19:50:22;30.32;38.93
71514;DHT22;59335;46.652;21.272;2022-08-06T19:53:29;30.31;38.93
71514;DHT22;59335;46.652;21.272;2022-08-06T19:56:34;30.29;38.93
71514;DHT22;59335;46.652;21.272;2022-08-06T19:59:37;30.32;39.00
71514;DHT22;59335;46.652;21.272;2022-08-06T20:02:59;30.31;38.97
71514;DHT22;59335;46.652;21.272;2022-08-06T20:06:03;30.31;39.05
71514;DHT22;59335;46.652;21.272;2022-08-06T20:09:26;30.31;39.05
71514;DHT22;59335;46.652;21.272;2022-08-06T20:12:50;30.32;39.08
71514;DHT22;59335;46.652;21.272;2022-08-06T20:15:54;30.28;39.14
71514;DHT22;59335;46.652;21.272;2022-08-06T20:18:58;30.27;39.11
71514;DHT22;59335;46.652;21.272;2022-08-06T20:22:03;30.28;39.10
71514;DHT22;59335;46.652;21.272;2022-08-06T20:25:08;30.28;39.18
71514;DHT22;59335;46.652;21.272;2022-08-06T20:28:21;30.29;39.15
71514;DHT22;59335;46.652;21.272;2022-08-06T20:31:44;30.27;39.17
71514;DHT22;59335;46.652;21.272;2022-08-06T20:34:56;30.27;39.18
71514;DHT22;59335;46.652;21.272;2022-08-06T20:38:00;30.27;39.14
71514;DHT22;59335;46.652;21.272;2022-08-06T20:41:09;30.28;39.15
71514;DHT22;59335;46.652;21.272;2022-08-06T20:44:31;30.28;39.22